createdAt,value
2018-09-28T00:00:01.484Z,89.63
2018-09-28T00:02:30.867Z,89.75
2018-09-28T00:05:00.340Z,89.29
2018-09-28T00:07:29.743Z,88.99
2018-09-28T00:09:59.147Z,89.15
2018-09-28T00:12:28.560Z,88.70
2018-09-28T00:14:57.976Z,88.55
2018-09-28T00:17:27.407Z,88.60
2018-09-28T00:19:56.779Z,88.67
2018-09-28T00:22:26.182Z,88.34
2018-09-28T00:24:55.575Z,87.73
2018-09-28T00:27:25.004Z,88.09
2018-09-28T00:29:54.403Z,87.43
2018-09-28T00:32:23.828Z,88.19
2018-09-28T00:34:53.296Z,88.03
2018-09-28T00:37:22.736Z,87.90
2018-09-28T00:39:52.152Z,87.75
2018-09-28T00:42:21.572Z,87.62
2018-09-28T00:44:51.028Z,88.13
2018-09-28T00:47:20.419Z,87.56
2018-09-28T00:49:49.815Z,88.01
2018-09-28T00:52:19.272Z,87.97
2018-09-28T00:54:48.675Z,87.42
2018-09-28T00:57:18.115Z,87.56
2018-09-28T00:59:47.516Z,87.56
2018-09-28T01:02:17.135Z,87.78
2018-09-28T01:04:46.753Z,86.93
2018-09-28T01:07:16.156Z,87.24
2018-09-28T01:09:45.561Z,86.95
2018-09-28T01:12:14.965Z,86.47
2018-09-28T01:14:44.538Z,86.55
2018-09-28T01:17:13.964Z,86.73
2018-09-28T01:19:43.447Z,86.13
2018-09-28T01:22:12.935Z,85.88
2018-09-28T01:24:42.546Z,86.10
2018-09-28T01:27:11.962Z,86.10
2018-09-28T01:29:41.348Z,85.67
2018-09-28T01:32:10.780Z,85.87
2018-09-28T01:34:40.173Z,85.47
2018-09-28T01:37:09.726Z,85.80
2018-09-28T01:39:39.088Z,85.83
2018-09-28T01:42:08.667Z,86.37
2018-09-28T01:44:38.117Z,86.14
2018-09-28T01:47:07.542Z,85.92
2018-09-28T01:49:37.004Z,86.31
2018-09-28T01:52:06.430Z,85.98
2018-09-28T01:54:35.885Z,85.94
2018-09-28T01:57:05.301Z,86.33
2018-09-28T01:59:34.723Z,85.83
2018-09-28T02:02:04.189Z,85.62
2018-09-28T02:04:33.661Z,85.90
2018-09-28T02:07:03.239Z,85.56
2018-09-28T02:09:32.661Z,85.06
2018-09-28T02:12:02.124Z,85.21
2018-09-28T02:14:31.563Z,85.40
2018-09-28T02:17:00.984Z,84.57
2018-09-28T02:19:30.437Z,84.72
2018-09-28T02:21:59.898Z,84.47
2018-09-28T02:24:29.586Z,84.00
2018-09-28T02:26:59.063Z,83.75
2018-09-28T02:29:28.509Z,83.38
2018-09-28T02:31:57.958Z,83.13
2018-09-28T02:34:27.789Z,83.12
2018-09-28T02:36:57.275Z,82.69
2018-09-28T02:39:26.745Z,82.61
2018-09-28T02:41:56.425Z,83.10
2018-09-28T02:44:26.067Z,82.28
2018-09-28T02:46:55.549Z,82.25
2018-09-28T02:49:25.237Z,81.96
2018-09-28T02:51:54.719Z,81.63
2018-09-28T02:54:24.220Z,81.50
2018-09-28T02:56:53.761Z,81.59
2018-09-28T02:59:23.510Z,81.18
2018-09-28T03:01:52.961Z,81.42
2018-09-28T03:04:22.369Z,80.52
2018-09-28T03:06:52.033Z,80.80
2018-09-28T03:09:21.471Z,80.47
2018-09-28T03:11:50.983Z,80.60
2018-09-28T03:14:20.631Z,80.63
2018-09-28T03:16:50.074Z,79.89
2018-09-28T03:19:19.610Z,80.37
2018-09-28T03:21:49.660Z,79.59
2018-09-28T03:24:19.140Z,79.45
2018-09-28T03:26:48.633Z,79.24
2018-09-28T03:29:18.152Z,79.54
2018-09-28T03:31:47.630Z,78.66
2018-09-28T03:34:17.097Z,79.14
2018-09-28T03:36:46.566Z,78.82
2018-09-28T03:39:15.990Z,78.80
2018-09-28T03:41:45.471Z,77.91
2018-09-28T03:44:14.921Z,78.18
2018-09-28T03:46:44.510Z,77.74
2018-09-28T03:49:13.971Z,77.80
2018-09-28T03:51:43.418Z,77.78
2018-09-28T03:54:12.933Z,77.96
2018-09-28T03:56:42.396Z,77.44
2018-09-28T03:59:11.858Z,78.06
2018-09-28T04:01:41.342Z,77.99
2018-09-28T04:04:10.826Z,77.76
2018-09-28T04:06:40.314Z,77.76
2018-09-28T04:09:11.349Z,77.22
2018-09-28T04:11:40.839Z,77.26
2018-09-28T04:14:10.309Z,77.58
2018-09-28T04:16:39.770Z,77.36
2018-09-28T04:19:09.403Z,77.48
2018-09-28T04:21:39.111Z,78.10
2018-09-28T04:24:08.840Z,78.22
2018-09-28T04:26:38.327Z,77.59
2018-09-28T04:29:07.822Z,78.06
2018-09-28T04:31:37.258Z,78.37
2018-09-28T04:34:06.961Z,78.23
2018-09-28T04:36:36.442Z,78.09
2018-09-28T04:39:07.229Z,78.61
2018-09-28T04:41:36.737Z,79.20
2018-09-28T04:44:06.175Z,79.22
2018-09-28T04:46:35.666Z,79.13
2018-09-28T04:49:05.325Z,78.93
2018-09-28T04:51:34.837Z,79.15
2018-09-28T04:54:04.370Z,79.04
2018-09-28T04:56:33.870Z,78.61
2018-09-28T04:59:03.419Z,78.42
2018-09-28T05:01:32.877Z,78.45
2018-09-28T05:04:02.345Z,77.50
2018-09-28T05:06:31.758Z,78.03
2018-09-28T05:09:01.272Z,77.24
2018-09-28T05:11:30.721Z,77.42
2018-09-28T05:14:00.174Z,77.38
2018-09-28T05:16:29.660Z,76.37
2018-09-28T05:18:59.227Z,76.14
2018-09-28T05:21:28.673Z,75.87
2018-09-28T05:23:58.238Z,76.47
2018-09-28T05:26:27.744Z,75.75
2018-09-28T05:28:57.709Z,75.95
2018-09-28T05:31:27.480Z,75.83
2018-09-28T05:33:57.008Z,75.52
2018-09-28T05:36:26.546Z,75.29
2018-09-28T05:38:56.019Z,75.00
2018-09-28T05:41:25.517Z,74.91
2018-09-28T05:43:55.093Z,75.54
2018-09-28T05:46:24.594Z,74.84
2018-09-28T05:48:53.946Z,74.87
2018-09-28T05:51:23.466Z,75.08
2018-09-28T05:53:53.430Z,75.01
2018-09-28T05:56:23.001Z,74.97
2018-09-28T05:58:57.579Z,75.48
2018-09-28T06:01:32.412Z,75.68
2018-09-28T06:04:07.192Z,75.67
2018-09-28T06:06:36.740Z,75.55
2018-09-28T06:09:10.345Z,75.14
2018-09-28T06:11:40.477Z,75.45
2018-09-28T06:14:10.201Z,75.69
2018-09-28T06:16:39.665Z,75.95
2018-09-28T06:19:09.169Z,75.98
2018-09-28T06:21:38.619Z,76.18
2018-09-28T06:24:08.120Z,75.58
2018-09-28T06:26:37.515Z,75.87
2018-09-28T06:29:07.321Z,76.11
2018-09-28T06:31:36.805Z,75.90
2018-09-28T06:34:06.287Z,76.18
2018-09-28T06:36:35.783Z,76.35
2018-09-28T06:39:06.601Z,75.97
2018-09-28T06:41:36.109Z,75.55
2018-09-28T06:44:05.974Z,75.62
2018-09-28T06:46:35.428Z,75.18
2018-09-28T06:49:04.892Z,74.40
2018-09-28T06:51:34.417Z,74.51
2018-09-28T06:54:04.062Z,73.70
2018-09-28T06:56:33.494Z,73.79
2018-09-28T06:59:02.953Z,72.95
2018-09-28T07:01:32.521Z,72.50
2018-09-28T07:04:02.074Z,72.41
2018-09-28T07:06:31.546Z,71.57
2018-09-28T07:09:01.078Z,68.18
2018-09-28T07:11:30.521Z,62.87
2018-09-28T07:14:00.064Z,57.97
2018-09-28T07:16:29.575Z,53.36
2018-09-28T07:18:58.951Z,52.93
2018-09-28T07:21:28.489Z,52.03
2018-09-28T07:23:58.086Z,49.28
2018-09-28T07:26:27.456Z,48.13
2018-09-28T07:28:56.909Z,48.23
2018-09-28T07:31:26.499Z,47.73
2018-09-28T07:33:55.964Z,46.00
2018-09-28T07:36:25.582Z,44.69
2018-09-28T07:38:54.955Z,43.21
2018-09-28T07:41:24.543Z,42.19
2018-09-28T07:43:54.092Z,40.67
2018-09-28T07:46:23.530Z,40.03
2018-09-28T07:48:52.980Z,39.68
2018-09-28T07:51:22.437Z,39.05
2018-09-28T07:53:52.050Z,38.52
2018-09-28T07:56:21.669Z,38.40
2018-09-28T07:58:51.093Z,37.79
2018-09-28T08:01:20.533Z,36.95
2018-09-28T08:03:50.023Z,36.73
2018-09-28T08:06:19.443Z,35.30
2018-09-28T08:08:48.857Z,34.41
2018-09-28T08:11:18.301Z,35.18
2018-09-28T08:13:47.746Z,34.16
2018-09-28T08:16:17.203Z,33.80
2018-09-28T08:18:46.637Z,32.59
2018-09-28T08:21:16.125Z,34.04
2018-09-28T08:23:45.582Z,34.98
2018-09-28T08:26:15.021Z,36.04
2018-09-28T08:28:44.584Z,34.82
2018-09-28T08:31:14.054Z,34.18
2018-09-28T08:33:43.477Z,33.10
2018-09-28T08:36:12.949Z,33.52
2018-09-28T08:38:42.365Z,33.64
2018-09-28T08:41:11.809Z,34.06
2018-09-28T08:43:41.290Z,32.89
2018-09-28T08:46:10.690Z,33.12
2018-09-28T08:48:40.228Z,32.78
2018-09-28T08:51:09.648Z,32.47
2018-09-28T08:53:39.156Z,32.19
2018-09-28T08:56:08.826Z,31.94
2018-09-28T08:58:38.289Z,30.64
2018-09-28T09:01:07.820Z,30.27
2018-09-28T09:03:37.432Z,31.34
2018-09-28T09:06:06.893Z,30.79
2018-09-28T09:08:36.351Z,31.11
2018-09-28T09:11:05.798Z,31.55
2018-09-28T09:13:35.265Z,32.41
2018-09-28T09:16:04.898Z,32.32
2018-09-28T09:18:34.318Z,31.55
2018-09-28T09:21:03.798Z,32.80
2018-09-28T09:23:33.225Z,33.87
2018-09-28T09:26:02.645Z,34.48
2018-09-28T09:28:32.130Z,35.57
2018-09-28T09:31:01.561Z,36.27
2018-09-28T09:33:31.021Z,36.87
2018-09-28T09:36:00.513Z,37.22
2018-09-28T09:38:29.952Z,37.17
2018-09-28T09:40:59.415Z,37.23
2018-09-28T09:43:28.859Z,37.42
2018-09-28T09:45:58.346Z,37.59
2018-09-28T09:48:27.862Z,36.44
2018-09-28T09:50:57.558Z,36.00
2018-09-28T09:53:27.002Z,35.20
2018-09-28T09:55:56.482Z,34.08
2018-09-28T09:58:25.949Z,32.75
2018-09-28T10:01:00.678Z,32.42
2018-09-28T10:03:35.214Z,32.34
2018-09-28T10:06:04.654Z,31.70
2018-09-28T10:08:34.145Z,30.71
2018-09-28T10:11:03.677Z,31.33
2018-09-28T10:13:33.185Z,31.93
2018-09-28T10:16:02.816Z,32.02
2018-09-28T10:18:32.424Z,32.82
2018-09-28T10:21:01.933Z,32.73
2018-09-28T10:23:31.397Z,32.73
2018-09-28T10:26:00.853Z,32.30
2018-09-28T10:28:30.318Z,32.74
2018-09-28T10:30:59.869Z,32.60
2018-09-28T10:33:29.347Z,32.85
2018-09-28T10:35:58.742Z,32.18
2018-09-28T10:38:28.213Z,33.24
2018-09-28T10:40:57.805Z,33.04
2018-09-28T10:43:27.153Z,33.58
2018-09-28T10:45:56.673Z,33.47
2018-09-28T10:48:26.253Z,33.50
2018-09-28T10:50:55.747Z,33.48
2018-09-28T10:53:25.163Z,33.99
2018-09-28T10:55:54.597Z,34.96
2018-09-28T10:58:24.168Z,35.47
2018-09-28T11:00:53.650Z,36.08
2018-09-28T11:03:23.140Z,35.70
2018-09-28T11:05:52.545Z,36.27
2018-09-28T11:08:22.050Z,36.39
2018-09-28T11:10:51.561Z,36.98
2018-09-28T11:13:20.957Z,36.86
2018-09-28T11:15:50.693Z,36.26
2018-09-28T11:18:20.180Z,36.34
2018-09-28T11:20:49.813Z,36.59
2018-09-28T11:23:19.397Z,37.46
2018-09-28T11:25:48.949Z,37.61
2018-09-28T11:28:18.406Z,37.70
2018-09-28T11:30:48.041Z,37.43
2018-09-28T11:33:17.754Z,36.98
2018-09-28T11:35:47.200Z,36.82
2018-09-28T11:38:16.698Z,37.15
2018-09-28T11:40:46.113Z,36.73
2018-09-28T11:43:15.623Z,36.82
2018-09-28T11:45:45.100Z,38.09
2018-09-28T11:48:14.477Z,38.06
2018-09-28T11:50:44.038Z,37.60
2018-09-28T11:53:13.556Z,37.22
2018-09-28T11:55:43.057Z,36.80
2018-09-28T11:58:12.529Z,36.98
2018-09-28T12:00:42.038Z,36.61
2018-09-28T12:03:11.553Z,36.17
2018-09-28T12:05:40.917Z,36.08
2018-09-28T12:08:10.477Z,36.22
2018-09-28T12:10:39.926Z,36.35
2018-09-28T12:13:09.391Z,36.56
2018-09-28T12:15:39.009Z,37.12
2018-09-28T12:18:08.487Z,37.35
2018-09-28T12:20:37.971Z,37.04
2018-09-28T12:23:07.741Z,37.57
2018-09-28T12:25:37.178Z,36.87
2018-09-28T12:28:06.613Z,36.88
2018-09-28T12:30:36.174Z,37.52
2018-09-28T12:33:05.670Z,36.84
2018-09-28T12:35:35.088Z,37.02
2018-09-28T12:38:04.649Z,37.53
2018-09-28T12:40:34.149Z,37.61
2018-09-28T12:43:03.622Z,37.72
2018-09-28T12:45:33.148Z,39.33
2018-09-28T12:48:02.639Z,38.88
2018-09-28T12:50:32.188Z,39.32
2018-09-28T12:53:01.655Z,39.13
2018-09-28T12:55:31.137Z,39.24
2018-09-28T12:58:00.580Z,39.23
2018-09-28T13:00:30.092Z,38.32
2018-09-28T13:02:59.592Z,38.09
2018-09-28T13:05:29.043Z,38.11
2018-09-28T13:07:58.569Z,37.49
2018-09-28T13:10:28.056Z,37.61
2018-09-28T13:12:57.522Z,37.92
2018-09-28T13:15:27.021Z,37.48
2018-09-28T13:17:56.497Z,37.99
2018-09-28T13:20:26.042Z,37.45
2018-09-28T13:22:55.566Z,38.13
2018-09-28T13:25:25.034Z,37.24
2018-09-28T13:27:54.518Z,37.26
2018-09-28T13:30:24.143Z,37.25
2018-09-28T13:32:53.587Z,37.55
2018-09-28T13:35:23.125Z,37.24
2018-09-28T13:37:52.781Z,37.83
2018-09-28T13:40:22.417Z,37.91
2018-09-28T13:42:51.893Z,37.71
2018-09-28T13:45:21.405Z,37.45
2018-09-28T13:47:50.824Z,37.16
2018-09-28T13:50:20.414Z,36.83
2018-09-28T13:52:49.940Z,37.60
2018-09-28T13:55:19.393Z,37.95
2018-09-28T13:57:48.930Z,37.43
2018-09-28T14:00:18.447Z,37.27
2018-09-28T14:02:48.004Z,37.48
2018-09-28T14:05:17.398Z,37.80
2018-09-28T14:07:46.857Z,37.90
2018-09-28T14:10:16.414Z,38.58
2018-09-28T14:12:45.893Z,38.36
2018-09-28T14:15:21.890Z,37.70
2018-09-28T14:17:51.455Z,38.43
2018-09-28T14:20:20.949Z,38.25
2018-09-28T14:22:52.279Z,37.98
2018-09-28T14:25:21.613Z,38.13
2018-09-28T14:27:51.070Z,38.10
2018-09-28T14:30:20.719Z,38.66
2018-09-28T14:32:50.158Z,38.49
2018-09-28T14:35:19.573Z,37.89
2018-09-28T14:37:49.095Z,37.99
2018-09-28T14:40:18.603Z,37.38
2018-09-28T14:42:48.057Z,37.90
2018-09-28T14:45:17.574Z,37.85
2018-09-28T14:47:47.018Z,37.88
2018-09-28T14:50:16.499Z,38.51
2018-09-28T14:52:46.011Z,39.59
2018-09-28T14:55:15.389Z,38.58
2018-09-28T14:57:44.883Z,39.24
2018-09-28T15:00:14.334Z,39.18
2018-09-28T15:02:43.877Z,39.19
2018-09-28T15:05:13.269Z,39.41
2018-09-28T15:07:42.807Z,40.16
2018-09-28T15:10:12.273Z,39.23
2018-09-28T15:12:41.783Z,40.01
2018-09-28T15:15:11.362Z,39.35
2018-09-28T15:17:40.734Z,39.48
2018-09-28T15:20:10.181Z,39.05
2018-09-28T15:22:39.626Z,38.61
2018-09-28T15:25:09.072Z,38.80
2018-09-28T15:27:38.487Z,38.70
2018-09-28T15:30:08.481Z,39.70
2018-09-28T15:32:38.014Z,39.71
2018-09-28T15:35:07.538Z,39.67
2018-09-28T15:37:36.969Z,40.27
2018-09-28T15:40:07.056Z,40.60
2018-09-28T15:42:36.493Z,40.58
2018-09-28T15:45:06.261Z,40.92
2018-09-28T15:47:35.885Z,40.87
2018-09-28T15:50:05.926Z,41.83
2018-09-28T15:52:35.497Z,41.72
2018-09-28T15:55:04.979Z,42.30
2018-09-28T15:57:34.438Z,41.96
2018-09-28T16:00:03.947Z,42.19
2018-09-28T16:02:33.429Z,42.53
2018-09-28T16:05:02.857Z,43.12
2018-09-28T16:07:32.343Z,43.02
2018-09-28T16:10:01.862Z,43.28
2018-09-28T16:12:31.323Z,43.83
2018-09-28T16:15:00.773Z,44.57
2018-09-28T16:17:30.244Z,44.62
2018-09-28T16:19:59.689Z,44.90
2018-09-28T16:22:29.163Z,45.16
2018-09-28T16:24:58.593Z,45.41
2018-09-28T16:27:28.071Z,45.03
2018-09-28T16:29:57.531Z,45.12
2018-09-28T16:32:26.959Z,44.89
2018-09-28T16:34:56.425Z,44.58
2018-09-28T16:37:25.978Z,44.91
2018-09-28T16:39:55.397Z,45.15
2018-09-28T16:42:24.825Z,44.70
2018-09-28T16:44:54.285Z,45.52
2018-09-28T16:47:23.702Z,44.87
2018-09-28T16:49:53.153Z,45.09
2018-09-28T16:52:22.613Z,45.22
2018-09-28T16:54:52.021Z,45.46
2018-09-28T16:57:21.441Z,45.26
2018-09-28T16:59:50.880Z,45.69
2018-09-28T17:02:20.332Z,45.46
2018-09-28T17:04:49.816Z,45.40
2018-09-28T17:07:19.340Z,46.03
2018-09-28T17:09:49.662Z,46.28
2018-09-28T17:12:19.390Z,46.31
2018-09-28T17:14:48.935Z,46.38
2018-09-28T17:17:18.373Z,46.07
2018-09-28T17:19:48.310Z,46.73
2018-09-28T17:22:17.761Z,46.79
2018-09-28T17:24:47.766Z,47.46
2018-09-28T17:27:17.557Z,47.13
2018-09-28T17:29:47.070Z,47.34
2018-09-28T17:32:16.742Z,47.82
2018-09-28T17:34:46.853Z,48.26
2018-09-28T17:37:16.579Z,48.26
2018-09-28T17:39:46.267Z,47.80
2018-09-28T17:42:15.958Z,47.92
2018-09-28T17:44:45.773Z,48.34
2018-09-28T17:47:15.527Z,48.54
2018-09-28T17:49:45.277Z,49.03
2018-09-28T17:52:15.309Z,48.84
2018-09-28T17:54:44.911Z,49.33
2018-09-28T17:57:14.854Z,48.93
2018-09-28T17:59:44.703Z,49.27
2018-09-28T18:02:14.857Z,49.60
2018-09-28T18:04:44.712Z,49.68
2018-09-28T18:07:14.162Z,50.21
2018-09-28T18:09:43.721Z,49.60
2018-09-28T18:12:13.349Z,49.95
2018-09-28T18:14:42.850Z,49.99
2018-09-28T18:17:12.331Z,50.84
2018-09-28T18:19:41.969Z,50.85
2018-09-28T18:22:11.419Z,50.43
2018-09-28T18:24:40.947Z,50.35
2018-09-28T18:27:10.407Z,51.21
2018-09-28T18:29:40.073Z,50.94
2018-09-28T18:32:09.515Z,50.70
2018-09-28T18:34:39.033Z,51.30
2018-09-28T18:37:08.617Z,51.40
2018-09-28T18:39:38.065Z,51.21
2018-09-28T18:42:07.609Z,51.78
2018-09-28T18:44:37.078Z,51.77
2018-09-28T18:47:06.902Z,51.97
2018-09-28T18:49:36.552Z,52.11
2018-09-28T18:52:06.036Z,52.50
2018-09-28T18:54:35.744Z,52.88
2018-09-28T18:57:05.194Z,52.94
2018-09-28T18:59:34.754Z,53.09
2018-09-28T19:02:04.211Z,53.37
2018-09-28T19:04:33.717Z,53.41
2018-09-28T19:07:03.198Z,53.82
2018-09-28T19:09:32.669Z,54.40
2018-09-28T19:12:02.104Z,54.37
2018-09-28T19:14:31.613Z,54.40
2018-09-28T19:17:01.144Z,54.77
2018-09-28T19:19:30.702Z,55.11
2018-09-28T19:22:00.157Z,55.14
2018-09-28T19:24:29.582Z,55.78
2018-09-28T19:26:59.093Z,55.73
2018-09-28T19:29:28.537Z,55.87
2018-09-28T19:31:57.997Z,55.77
2018-09-28T19:34:27.706Z,56.11
2018-09-28T19:36:57.186Z,56.03
2018-09-28T19:39:26.670Z,56.21
2018-09-28T19:41:56.137Z,56.13
2018-09-28T19:44:25.609Z,56.08
2018-09-28T19:46:55.101Z,56.56
2018-09-28T19:49:24.578Z,56.65
2018-09-28T19:51:54.060Z,56.62
2018-09-28T19:54:23.541Z,57.07
2018-09-28T19:56:52.972Z,57.24
2018-09-28T19:59:22.535Z,57.48
2018-09-28T20:01:52.030Z,57.72
2018-09-28T20:04:21.539Z,57.83
2018-09-28T20:06:51.078Z,57.81
2018-09-28T20:09:20.569Z,58.44
2018-09-28T20:11:50.050Z,58.72
2018-09-28T20:14:22.425Z,58.87
2018-09-28T20:16:51.853Z,59.22
2018-09-28T20:19:21.342Z,59.45
2018-09-28T20:21:50.741Z,59.28
2018-09-28T20:24:20.205Z,60.23
2018-09-28T20:26:49.653Z,60.18
2018-09-28T20:29:19.094Z,59.85
2018-09-28T20:31:48.530Z,60.22
2018-09-28T20:34:18.026Z,60.62
2018-09-28T20:36:47.463Z,61.28
2018-09-28T20:39:16.925Z,61.20
2018-09-28T20:41:46.381Z,61.27
2018-09-28T20:44:15.879Z,61.43
2018-09-28T20:46:45.371Z,61.67
2018-09-28T20:49:14.781Z,60.99
2018-09-28T20:51:44.201Z,62.10
2018-09-28T20:54:13.639Z,61.94
2018-09-28T20:56:43.057Z,61.76
2018-09-28T20:59:12.544Z,62.14
2018-09-28T21:01:42.581Z,62.47
2018-09-28T21:04:12.150Z,62.55
2018-09-28T21:06:41.632Z,62.61
2018-09-28T21:09:11.644Z,62.68
2018-09-28T21:11:41.148Z,63.11
2018-09-28T21:14:10.712Z,63.18
2018-09-28T21:16:40.190Z,62.98
2018-09-28T21:19:09.721Z,63.06
2018-09-28T21:21:39.270Z,63.40
2018-09-28T21:24:08.910Z,62.91
2018-09-28T21:26:38.393Z,63.19
2018-09-28T21:29:08.242Z,63.41
2018-09-28T21:31:37.777Z,62.94
2018-09-28T21:34:07.396Z,63.29
2018-09-28T21:36:36.883Z,63.15
2018-09-28T21:39:09.325Z,63.18
2018-09-28T21:41:38.830Z,63.54
2018-09-28T21:44:09.014Z,63.55
2018-09-28T21:46:38.513Z,63.80
2018-09-28T21:49:08.024Z,64.04
2018-09-28T21:51:37.529Z,63.89
2018-09-28T21:54:07.037Z,64.30
2018-09-28T21:56:36.615Z,63.98
2018-09-28T21:59:06.145Z,64.69
2018-09-28T22:01:35.708Z,64.80
2018-09-28T22:04:05.205Z,64.79
2018-09-28T22:06:34.681Z,64.75
2018-09-28T22:09:05.285Z,65.06
2018-09-28T22:11:34.773Z,65.27
2018-09-28T22:14:04.243Z,64.49
2018-09-28T22:16:33.997Z,65.00
2018-09-28T22:19:03.442Z,65.02
2018-09-28T22:21:32.972Z,65.56
2018-09-28T22:24:02.446Z,65.20
2018-09-28T22:26:31.923Z,65.40
2018-09-28T22:29:01.469Z,65.38
2018-09-28T22:31:30.930Z,64.86
2018-09-28T22:34:00.398Z,65.40
2018-09-28T22:36:29.837Z,65.71
2018-09-28T22:38:59.316Z,65.43
2018-09-28T22:41:28.817Z,65.99
2018-09-28T22:43:58.433Z,66.10
2018-09-28T22:46:27.864Z,66.23
2018-09-28T22:48:57.430Z,66.29
2018-09-28T22:51:26.940Z,66.08
2018-09-28T22:53:56.378Z,66.49
2018-09-28T22:56:25.955Z,66.67
2018-09-28T22:58:55.425Z,66.57
2018-09-28T23:01:24.869Z,66.90
2018-09-28T23:03:54.376Z,67.33
2018-09-28T23:06:23.810Z,67.17
2018-09-28T23:08:53.364Z,67.23
2018-09-28T23:11:22.895Z,67.19
2018-09-28T23:13:52.394Z,67.83
2018-09-28T23:16:21.857Z,67.75
2018-09-28T23:18:51.403Z,67.71
2018-09-28T23:21:20.838Z,68.21
2018-09-28T23:23:50.265Z,68.05
2018-09-28T23:26:19.716Z,68.60
2018-09-28T23:28:49.181Z,67.76
2018-09-28T23:31:18.681Z,68.18
2018-09-28T23:33:48.115Z,68.38
2018-09-28T23:36:17.597Z,68.08
2018-09-28T23:38:47.093Z,68.13
2018-09-28T23:41:16.586Z,68.38
2018-09-28T23:43:46.257Z,68.93
2018-09-28T23:46:15.744Z,68.80
2018-09-28T23:48:45.272Z,68.94
2018-09-28T23:51:14.760Z,68.68
2018-09-28T23:53:44.204Z,68.74
2018-09-28T23:56:13.629Z,68.76
2018-09-28T23:58:43.051Z,69.28
